Reklama

Seznam meteostanic a jejich METAR

Vyhledat místa podle abecedy:
A B C D E F G H I J K L M N O P Q R S T U V W X Y Z

Filtrovat:

ID stanice:
a/nebo
Název místa (fulltext):
 
Místo (ID)Naposledy načteno 
Jakarta (WIII) 06.12.2019 00:00 UTC Zobrazit METAR
WIII 060000Z 13002KT 4000 HZ BKN020 27/24 Q1011 NOSIG
Jerusalem (LLJR) Zatím nenačteno  
Joensuu (EFJO) 05.12.2019 23:50 UTC Zobrazit METAR
EFJO 052350Z AUTO 23010KT 9999 FEW012 BKN025 OVC046 03/01 Q0984
Johannesburg (FAJS) 09.01.2013 23:00 UTC Zobrazit METAR
FAJS 092300Z 01010KT 340V040 CAVOK 22/11 Q1020 NOSIG
Johnston I (PJON) Zatím nenačteno  
Reklama

Počasí na Váš email

Emaily jsou bez reklamy a bez spamu



Odhlásit newsletter

Reklama


Lunární kalendář

  • 12.12.
  • 19.12.
  • 26.12.
  • 03.01.



Reklama


Reklama
Povinné ručení
Reklama



Reklama